createdAt,value
2022-12-17T00:00:03.627Z,1012.05
2022-12-17T00:01:03.613Z,1012.11
2022-12-17T00:02:04.690Z,1012.09
2022-12-17T00:03:04.847Z,1012.11
2022-12-17T00:04:04.496Z,1012.12
2022-12-17T00:05:04.238Z,1012.10
2022-12-17T00:06:04.757Z,1012.09
2022-12-17T00:07:04.120Z,1012.16
2022-12-17T00:08:04.213Z,1012.17
2022-12-17T00:09:03.830Z,1012.16
2022-12-17T00:10:03.850Z,1012.19
2022-12-17T00:11:04.032Z,1012.20
2022-12-17T00:12:04.562Z,1012.18
2022-12-17T00:13:04.420Z,1012.20
2022-12-17T00:14:04.140Z,1012.23
2022-12-17T00:15:04.039Z,1012.21
2022-12-17T00:16:04.017Z,1012.16
2022-12-17T00:17:04.783Z,1012.20
2022-12-17T00:18:04.477Z,1012.19
2022-12-17T00:19:04.484Z,1012.16
2022-12-17T00:20:04.443Z,1012.15
2022-12-17T00:21:04.446Z,1012.21
2022-12-17T00:22:03.704Z,1012.18
2022-12-17T00:23:03.662Z,1012.21
2022-12-17T00:24:04.263Z,1012.22
2022-12-17T00:25:04.009Z,1012.18
2022-12-17T00:26:04.131Z,1012.24
2022-12-17T00:27:04.166Z,1012.27
2022-12-17T00:28:04.585Z,1012.23
2022-12-17T00:29:04.332Z,1012.22
2022-12-17T00:30:04.063Z,1012.20
2022-12-17T00:31:04.397Z,1012.22
2022-12-17T00:32:04.250Z,1012.27
2022-12-17T00:33:04.567Z,1012.29
2022-12-17T00:34:04.558Z,1012.29
2022-12-17T00:35:04.465Z,1012.27
2022-12-17T00:36:04.234Z,1012.26
2022-12-17T00:37:04.354Z,1012.27
2022-12-17T00:38:04.376Z,1012.37
2022-12-17T00:39:04.436Z,1012.35
2022-12-17T00:40:04.613Z,1012.33
2022-12-17T00:41:04.574Z,1012.32
2022-12-17T00:42:04.249Z,1012.39
2022-12-17T00:43:04.220Z,1012.34
2022-12-17T00:44:04.269Z,1012.36
2022-12-17T00:45:03.941Z,1012.36
2022-12-17T00:46:04.260Z,1012.40
2022-12-17T00:47:03.422Z,1012.38
2022-12-17T00:48:03.839Z,1012.33
2022-12-17T00:49:03.963Z,1012.36
2022-12-17T00:50:03.793Z,1012.36
2022-12-17T00:51:03.953Z,1012.38
2022-12-17T00:52:04.080Z,1012.44
2022-12-17T00:53:04.414Z,1012.38
2022-12-17T00:54:04.465Z,1012.39
2022-12-17T00:55:04.285Z,1012.40
2022-12-17T00:56:04.306Z,1012.37
2022-12-17T00:57:04.513Z,1012.43
2022-12-17T00:58:04.246Z,1012.43
2022-12-17T00:59:04.372Z,1012.45
2022-12-17T01:00:04.718Z,1012.39
2022-12-17T01:01:04.287Z,1012.41
2022-12-17T01:02:04.375Z,1012.46
2022-12-17T01:03:04.239Z,1012.43
2022-12-17T01:04:04.199Z,1012.46
2022-12-17T01:05:04.146Z,1012.49
2022-12-17T01:06:04.207Z,1012.49
2022-12-17T01:07:03.960Z,1012.54
2022-12-17T01:08:03.608Z,1012.49
2022-12-17T01:09:03.476Z,1012.49
2022-12-17T01:10:03.458Z,1012.52
2022-12-17T01:11:03.755Z,1012.56
2022-12-17T01:12:04.202Z,1012.58
2022-12-17T01:13:04.082Z,1012.56
2022-12-17T01:14:04.182Z,1012.54
2022-12-17T01:15:04.026Z,1012.52
2022-12-17T01:16:03.712Z,1012.52
2022-12-17T01:17:03.415Z,1012.52
2022-12-17T01:18:03.263Z,1012.49
2022-12-17T01:19:03.248Z,1012.53
2022-12-17T01:20:03.428Z,1012.60
2022-12-17T01:21:03.400Z,1012.63
2022-12-17T01:22:03.439Z,1012.64
2022-12-17T01:23:03.441Z,1012.64
2022-12-17T01:24:03.816Z,1012.68
2022-12-17T01:25:03.877Z,1012.73
2022-12-17T01:26:03.419Z,1012.65
2022-12-17T01:27:03.477Z,1012.72
2022-12-17T01:28:03.897Z,1012.74
2022-12-17T01:29:03.701Z,1012.72
2022-12-17T01:30:03.566Z,1012.75
2022-12-17T01:31:03.753Z,1012.78
2022-12-17T01:32:04.013Z,1012.79
2022-12-17T01:33:03.574Z,1012.80
2022-12-17T01:34:04.118Z,1012.79
2022-12-17T01:35:03.662Z,1012.78
2022-12-17T01:36:03.563Z,1012.80
2022-12-17T01:37:03.090Z,1012.84
2022-12-17T01:38:03.531Z,1012.82
2022-12-17T01:39:03.452Z,1012.86
2022-12-17T01:40:03.179Z,1012.83
2022-12-17T01:41:03.580Z,1012.84
2022-12-17T01:42:03.168Z,1012.83
2022-12-17T01:43:03.053Z,1012.82
2022-12-17T01:44:03.292Z,1012.84
2022-12-17T01:45:03.249Z,1012.86
2022-12-17T01:46:03.678Z,1012.95
2022-12-17T01:47:03.530Z,1012.97
2022-12-17T01:48:03.780Z,1012.87
2022-12-17T01:49:03.838Z,1012.95
2022-12-17T01:50:03.850Z,1012.95
2022-12-17T01:51:03.675Z,1012.98
2022-12-17T01:52:03.189Z,1013.02
2022-12-17T01:53:02.933Z,1013.01
2022-12-17T01:54:03.102Z,1012.97
2022-12-17T01:55:03.103Z,1013.00
2022-12-17T01:56:02.931Z,1012.96
2022-12-17T01:57:03.330Z,1012.96
2022-12-17T01:58:03.284Z,1013.00
2022-12-17T01:59:03.436Z,1013.07
2022-12-17T02:00:03.925Z,1012.99
2022-12-17T02:01:03.939Z,1012.97
2022-12-17T02:02:03.910Z,1013.02
2022-12-17T02:03:03.779Z,1012.97
2022-12-17T02:04:03.483Z,1012.98
2022-12-17T02:05:03.836Z,1012.99
2022-12-17T02:06:03.497Z,1013.00
2022-12-17T02:07:04.473Z,1013.07
2022-12-17T02:08:04.043Z,1013.07
2022-12-17T02:09:04.217Z,1013.07
2022-12-17T02:10:04.351Z,1013.04
2022-12-17T02:11:04.085Z,1013.12
2022-12-17T02:12:03.411Z,1013.09
2022-12-17T02:13:03.651Z,1013.08
2022-12-17T02:14:03.555Z,1013.17
2022-12-17T02:15:03.053Z,1013.14
2022-12-17T02:16:03.412Z,1013.14
2022-12-17T02:17:03.719Z,1013.17
2022-12-17T02:18:03.795Z,1013.16
2022-12-17T02:19:03.247Z,1013.26
2022-12-17T02:20:03.271Z,1013.24
2022-12-17T02:21:03.604Z,1013.12
2022-12-17T02:22:03.486Z,1013.19
2022-12-17T02:23:03.946Z,1013.22
2022-12-17T02:24:04.122Z,1013.21
2022-12-17T02:25:04.019Z,1013.15
2022-12-17T02:26:03.868Z,1013.16
2022-12-17T02:27:03.080Z,1013.17
2022-12-17T02:28:03.105Z,1013.16
2022-12-17T02:29:03.362Z,1013.15
2022-12-17T02:30:03.263Z,1013.17
2022-12-17T02:31:03.535Z,1013.20
2022-12-17T02:32:04.116Z,1013.18
2022-12-17T02:33:04.067Z,1013.21
2022-12-17T02:34:03.708Z,1013.20
2022-12-17T02:35:03.535Z,1013.30
2022-12-17T02:36:03.801Z,1013.26
2022-12-17T02:37:03.878Z,1013.27
2022-12-17T02:38:03.921Z,1013.23
2022-12-17T02:39:03.974Z,1013.26
2022-12-17T02:40:04.322Z,1013.24
2022-12-17T02:41:03.835Z,1013.23
2022-12-17T02:42:03.550Z,1013.24
2022-12-17T02:43:03.455Z,1013.25
2022-12-17T02:44:03.000Z,1013.22
2022-12-17T02:45:02.968Z,1013.23
2022-12-17T02:46:03.607Z,1013.28
2022-12-17T02:47:04.091Z,1013.26
2022-12-17T02:48:03.970Z,1013.31
2022-12-17T02:49:03.483Z,1013.33
2022-12-17T02:50:03.752Z,1013.37
2022-12-17T02:51:03.830Z,1013.37
2022-12-17T02:52:03.052Z,1013.36
2022-12-17T02:53:03.378Z,1013.33
2022-12-17T02:54:03.210Z,1013.42
2022-12-17T02:55:03.175Z,1013.40
2022-12-17T02:56:03.597Z,1013.38
2022-12-17T02:57:03.990Z,1013.30
2022-12-17T02:58:03.684Z,1013.35
2022-12-17T02:59:03.668Z,1013.36
2022-12-17T03:00:04.099Z,1013.42
2022-12-17T03:01:03.886Z,1013.42
2022-12-17T03:02:04.542Z,1013.41
2022-12-17T03:03:03.795Z,1013.40
2022-12-17T03:04:04.374Z,1013.38
2022-12-17T03:05:27.574Z,1013.41
2022-12-17T03:06:03.872Z,1013.40
2022-12-17T03:07:04.190Z,1013.40
2022-12-17T03:08:04.094Z,1013.37
2022-12-17T03:09:04.064Z,1013.35
2022-12-17T03:10:04.599Z,1013.38
2022-12-17T03:11:04.071Z,1013.35
2022-12-17T03:12:03.812Z,1013.36
2022-12-17T03:13:03.993Z,1013.37
2022-12-17T03:14:03.814Z,1013.34
2022-12-17T03:15:03.736Z,1013.35
2022-12-17T03:16:03.653Z,1013.36
2022-12-17T03:17:04.197Z,1013.38
2022-12-17T03:18:03.761Z,1013.41
2022-12-17T03:19:03.664Z,1013.44
2022-12-17T03:20:03.547Z,1013.38
2022-12-17T03:21:03.824Z,1013.43
2022-12-17T03:22:03.687Z,1013.40
2022-12-17T03:23:03.589Z,1013.40
2022-12-17T03:24:03.364Z,1013.46
2022-12-17T03:25:03.464Z,1013.46
2022-12-17T03:26:03.564Z,1013.49
2022-12-17T03:27:04.153Z,1013.48
2022-12-17T03:28:03.950Z,1013.44
2022-12-17T03:29:03.692Z,1013.47
2022-12-17T03:30:04.119Z,1013.49
2022-12-17T03:31:03.786Z,1013.45
2022-12-17T03:32:04.103Z,1013.48
2022-12-17T03:33:04.345Z,1013.50
2022-12-17T03:34:04.006Z,1013.53
2022-12-17T03:35:04.083Z,1013.50
2022-12-17T03:36:04.600Z,1013.52
2022-12-17T03:37:03.389Z,1013.52
2022-12-17T03:38:03.560Z,1013.51
2022-12-17T03:39:03.295Z,1013.53
2022-12-17T03:40:03.823Z,1013.48
2022-12-17T03:41:03.494Z,1013.46
2022-12-17T03:42:04.247Z,1013.48
2022-12-17T03:43:04.292Z,1013.49
2022-12-17T03:44:04.072Z,1013.46
2022-12-17T03:45:04.031Z,1013.48
2022-12-17T03:46:04.298Z,1013.47
2022-12-17T03:47:03.172Z,1013.50
2022-12-17T03:48:03.465Z,1013.51
2022-12-17T03:49:03.581Z,1013.51
2022-12-17T03:50:03.490Z,1013.49
2022-12-17T03:51:03.534Z,1013.48
2022-12-17T03:52:03.733Z,1013.50
2022-12-17T03:53:03.595Z,1013.49
2022-12-17T03:54:03.652Z,1013.55
2022-12-17T03:55:03.360Z,1013.48
2022-12-17T03:56:03.313Z,1013.52
2022-12-17T03:57:04.027Z,1013.52
2022-12-17T03:58:04.038Z,1013.57
2022-12-17T03:59:03.663Z,1013.54
2022-12-17T04:00:04.037Z,1013.53
2022-12-17T04:01:04.163Z,1013.53
2022-12-17T04:02:03.727Z,1013.53
2022-12-17T04:03:04.261Z,1013.51
2022-12-17T04:04:03.997Z,1013.55
2022-12-17T04:05:03.550Z,1013.56
2022-12-17T04:06:03.727Z,1013.56
2022-12-17T04:07:04.109Z,1013.52
2022-12-17T04:08:03.969Z,1013.63
2022-12-17T04:09:03.888Z,1013.61
2022-12-17T04:10:03.717Z,1013.58
2022-12-17T04:11:04.033Z,1013.55
2022-12-17T04:12:03.709Z,1013.59
2022-12-17T04:13:03.532Z,1013.67
2022-12-17T04:14:03.219Z,1013.60
2022-12-17T04:15:03.216Z,1013.65
2022-12-17T04:16:03.360Z,1013.68
2022-12-17T04:17:03.204Z,1013.67
2022-12-17T04:18:03.360Z,1013.62
2022-12-17T04:19:03.526Z,1013.67
2022-12-17T04:20:03.642Z,1013.64
2022-12-17T04:21:03.794Z,1013.63
2022-12-17T04:22:03.277Z,1013.65
2022-12-17T04:23:03.980Z,1013.65
2022-12-17T04:24:03.649Z,1013.67
2022-12-17T04:25:03.546Z,1013.70
2022-12-17T04:26:03.717Z,1013.73
2022-12-17T04:27:04.306Z,1013.70
2022-12-17T04:28:04.314Z,1013.69
2022-12-17T04:29:03.738Z,1013.68
2022-12-17T04:30:04.026Z,1013.67
2022-12-17T04:31:04.332Z,1013.76
2022-12-17T04:32:03.209Z,1013.76
2022-12-17T04:33:03.306Z,1013.80
2022-12-17T04:34:03.264Z,1013.78
2022-12-17T04:35:03.541Z,1013.80
2022-12-17T04:36:03.519Z,1013.79
2022-12-17T04:37:03.370Z,1013.80
2022-12-17T04:38:03.850Z,1013.81
2022-12-17T04:39:03.775Z,1013.77
2022-12-17T04:40:03.400Z,1013.78
2022-12-17T04:41:03.675Z,1013.79
2022-12-17T04:42:03.582Z,1013.79
2022-12-17T04:43:04.084Z,1013.81
2022-12-17T04:44:03.875Z,1013.83
2022-12-17T04:45:04.184Z,1013.83
2022-12-17T04:46:03.920Z,1013.80
2022-12-17T04:47:03.511Z,1013.80
2022-12-17T04:48:03.317Z,1013.79
2022-12-17T04:49:03.109Z,1013.79
2022-12-17T04:50:03.211Z,1013.81
2022-12-17T04:51:02.977Z,1013.82
2022-12-17T04:52:03.788Z,1013.83
2022-12-17T04:53:03.401Z,1013.89
2022-12-17T04:54:03.442Z,1013.92
2022-12-17T04:55:03.170Z,1013.95
2022-12-17T04:56:03.343Z,1014.05
2022-12-17T04:57:03.223Z,1014.05
2022-12-17T04:58:02.745Z,1014.04
2022-12-17T04:59:02.847Z,1014.09
2022-12-17T05:00:02.736Z,1014.05
2022-12-17T05:01:02.984Z,1014.05
2022-12-17T05:02:04.482Z,1014.00
2022-12-17T05:03:04.204Z,1014.10
2022-12-17T05:04:04.337Z,1014.04
2022-12-17T05:05:04.088Z,1014.05
2022-12-17T05:06:04.132Z,1014.07
2022-12-17T05:07:03.109Z,1014.11
2022-12-17T05:08:03.036Z,1014.09
2022-12-17T05:09:03.453Z,1014.13
2022-12-17T05:10:03.456Z,1014.15
2022-12-17T05:11:03.532Z,1014.14
2022-12-17T05:12:03.440Z,1014.21
2022-12-17T05:13:03.595Z,1014.18
2022-12-17T05:14:03.523Z,1014.22
2022-12-17T05:15:03.143Z,1014.28
2022-12-17T05:16:03.193Z,1014.22
2022-12-17T05:17:03.621Z,1014.26
2022-12-17T05:18:03.267Z,1014.25
2022-12-17T05:19:03.121Z,1014.24
2022-12-17T05:20:03.648Z,1014.28
2022-12-17T05:21:03.245Z,1014.23
2022-12-17T05:22:03.483Z,1014.22
2022-12-17T05:23:03.717Z,1014.24
2022-12-17T05:24:03.807Z,1014.28
2022-12-17T05:25:03.568Z,1014.26
2022-12-17T05:26:03.464Z,1014.25
2022-12-17T05:27:03.269Z,1014.20
2022-12-17T05:28:03.186Z,1014.20
2022-12-17T05:29:03.376Z,1014.23
2022-12-17T05:30:03.623Z,1014.21
2022-12-17T05:31:03.317Z,1014.21
2022-12-17T05:32:04.155Z,1014.18
2022-12-17T05:33:03.941Z,1014.22
2022-12-17T05:34:03.859Z,1014.23
2022-12-17T05:35:03.492Z,1014.18
2022-12-17T05:36:03.839Z,1014.19
2022-12-17T05:37:03.433Z,1014.21
2022-12-17T05:38:03.246Z,1014.19
2022-12-17T05:39:03.242Z,1014.18
2022-12-17T05:40:07.815Z,1014.14
2022-12-17T05:41:03.484Z,1014.17
2022-12-17T05:42:03.731Z,1014.13
2022-12-17T05:43:03.260Z,1014.17
2022-12-17T05:44:03.152Z,1014.15
2022-12-17T05:45:03.266Z,1014.15
2022-12-17T05:46:03.686Z,1014.20
2022-12-17T05:47:02.838Z,1014.28
2022-12-17T05:48:03.230Z,1014.30
2022-12-17T05:49:03.174Z,1014.31
2022-12-17T05:50:02.991Z,1014.32
2022-12-17T05:51:03.151Z,1014.33
2022-12-17T05:52:02.895Z,1014.32
2022-12-17T05:53:02.830Z,1014.32
2022-12-17T05:54:03.164Z,1014.34
2022-12-17T05:55:02.858Z,1014.35
2022-12-17T05:56:03.193Z,1014.34
2022-12-17T05:57:02.611Z,1014.38
2022-12-17T05:58:02.636Z,1014.36
2022-12-17T05:59:02.745Z,1014.40
2022-12-17T06:00:02.814Z,1014.48
2022-12-17T06:01:02.622Z,1014.46
2022-12-17T06:02:03.787Z,1014.50
2022-12-17T06:03:04.119Z,1014.51
2022-12-17T06:04:03.879Z,1014.54
2022-12-17T06:05:04.007Z,1014.54
2022-12-17T06:06:03.640Z,1014.47
2022-12-17T06:07:04.256Z,1014.51
2022-12-17T06:08:04.007Z,1014.44
2022-12-17T06:09:03.870Z,1014.49
2022-12-17T06:10:04.477Z,1014.45
2022-12-17T06:11:04.453Z,1014.52
2022-12-17T06:12:03.692Z,1014.55
2022-12-17T06:13:03.814Z,1014.62
2022-12-17T06:14:03.625Z,1014.71
2022-12-17T06:15:03.219Z,1014.64
2022-12-17T06:16:03.544Z,1014.72
2022-12-17T06:17:03.672Z,1014.69
2022-12-17T06:18:03.584Z,1014.73
2022-12-17T06:19:03.403Z,1014.67
2022-12-17T06:20:03.863Z,1014.66
2022-12-17T06:21:03.457Z,1014.63
2022-12-17T06:22:03.562Z,1014.65
2022-12-17T06:23:03.313Z,1014.67
2022-12-17T06:24:03.333Z,1014.70
2022-12-17T06:25:03.455Z,1014.73
2022-12-17T06:26:03.256Z,1014.66
2022-12-17T06:27:03.701Z,1014.66
2022-12-17T06:28:03.502Z,1014.66
2022-12-17T06:29:03.236Z,1014.70
2022-12-17T06:30:03.157Z,1014.70
2022-12-17T06:31:03.638Z,1014.76
2022-12-17T06:32:03.946Z,1014.73
2022-12-17T06:33:03.897Z,1014.71
2022-12-17T06:34:03.558Z,1014.79
2022-12-17T06:35:04.163Z,1014.78
2022-12-17T06:36:03.671Z,1014.81
2022-12-17T06:37:03.482Z,1014.79
2022-12-17T06:38:03.475Z,1014.77
2022-12-17T06:39:03.521Z,1014.77
2022-12-17T06:40:03.801Z,1014.77
2022-12-17T06:41:03.636Z,1014.74
2022-12-17T06:42:04.703Z,1014.80
2022-12-17T06:43:03.643Z,1014.80
2022-12-17T06:44:03.529Z,1014.80
2022-12-17T06:45:03.755Z,1014.79
2022-12-17T06:46:03.933Z,1014.85
2022-12-17T06:47:02.964Z,1014.79
2022-12-17T06:48:03.102Z,1014.86
2022-12-17T06:49:03.359Z,1014.84
2022-12-17T06:50:02.843Z,1014.86
2022-12-17T06:51:02.970Z,1014.85
2022-12-17T06:52:03.540Z,1014.90
2022-12-17T06:53:03.255Z,1014.86
2022-12-17T06:54:03.738Z,1014.85
2022-12-17T06:55:03.621Z,1014.87
2022-12-17T06:56:03.789Z,1014.94
2022-12-17T06:57:03.388Z,1014.96
2022-12-17T06:58:03.082Z,1014.99
2022-12-17T06:59:03.375Z,1015.00
2022-12-17T07:00:03.336Z,1014.99
2022-12-17T07:01:02.940Z,1015.05
2022-12-17T07:02:04.581Z,1014.98
2022-12-17T07:03:04.235Z,1015.05
2022-12-17T07:04:04.354Z,1015.04
2022-12-17T07:05:04.110Z,1015.04
2022-12-17T07:06:03.926Z,1015.04
2022-12-17T07:07:04.288Z,1015.04
2022-12-17T07:08:04.903Z,1015.09
2022-12-17T07:09:04.397Z,1015.02
2022-12-17T07:10:06.936Z,1015.07
2022-12-17T07:11:04.714Z,1015.09
2022-12-17T07:12:03.702Z,1015.05
2022-12-17T07:13:03.719Z,1015.07
2022-12-17T07:14:04.214Z,1015.11
2022-12-17T07:15:03.579Z,1015.10
2022-12-17T07:16:04.281Z,1015.10
2022-12-17T07:17:04.132Z,1015.19
2022-12-17T07:18:04.616Z,1015.13
2022-12-17T07:19:04.279Z,1015.14
2022-12-17T07:20:04.383Z,1015.14
2022-12-17T07:21:04.516Z,1015.11
2022-12-17T07:22:04.131Z,1015.16
2022-12-17T07:23:03.986Z,1015.17
2022-12-17T07:24:04.220Z,1015.19
2022-12-17T07:25:04.229Z,1015.21
2022-12-17T07:26:03.531Z,1015.18
2022-12-17T07:27:04.268Z,1015.18
2022-12-17T07:28:04.432Z,1015.21
2022-12-17T07:29:04.491Z,1015.21
2022-12-17T07:30:04.305Z,1015.22
2022-12-17T07:31:04.324Z,1015.22
2022-12-17T07:32:03.572Z,1015.24
2022-12-17T07:33:03.367Z,1015.27
2022-12-17T07:34:03.396Z,1015.23
2022-12-17T07:35:03.303Z,1015.24
2022-12-17T07:36:03.501Z,1015.27
2022-12-17T07:37:03.996Z,1015.25
2022-12-17T07:38:04.187Z,1015.28
2022-12-17T07:39:04.114Z,1015.30
2022-12-17T07:40:03.943Z,1015.33
2022-12-17T07:41:03.719Z,1015.35
2022-12-17T07:42:04.091Z,1015.37
2022-12-17T07:43:03.893Z,1015.32
2022-12-17T07:44:04.263Z,1015.40
2022-12-17T07:45:04.006Z,1015.41
2022-12-17T07:46:04.640Z,1015.41
2022-12-17T07:47:04.017Z,1015.42
2022-12-17T07:48:03.818Z,1015.45
2022-12-17T07:49:03.633Z,1015.46
2022-12-17T07:50:03.427Z,1015.43
2022-12-17T07:51:03.611Z,1015.44
2022-12-17T07:52:03.610Z,1015.54
2022-12-17T07:53:03.897Z,1015.51
2022-12-17T07:54:03.611Z,1015.56
2022-12-17T07:55:03.854Z,1015.55
2022-12-17T07:56:03.548Z,1015.55
2022-12-17T07:57:03.641Z,1015.54
2022-12-17T07:58:03.290Z,1015.60
2022-12-17T07:59:03.515Z,1015.54
2022-12-17T08:00:03.513Z,1015.56
2022-12-17T08:01:03.367Z,1015.55
2022-12-17T08:02:04.133Z,1015.60
2022-12-17T08:03:04.097Z,1015.58
2022-12-17T08:04:03.831Z,1015.54
2022-12-17T08:05:04.050Z,1015.60
2022-12-17T08:06:04.347Z,1015.65
2022-12-17T08:07:10.126Z,1015.61
2022-12-17T08:08:04.530Z,1015.67
2022-12-17T08:09:04.637Z,1015.64
2022-12-17T08:10:04.362Z,1015.65
2022-12-17T08:11:04.707Z,1015.67
2022-12-17T08:12:04.840Z,1015.71
2022-12-17T08:13:08.336Z,1015.74
2022-12-17T08:14:05.346Z,1015.78
2022-12-17T08:15:04.470Z,1015.77
2022-12-17T08:16:04.571Z,1015.71
2022-12-17T08:17:04.138Z,1015.71
2022-12-17T08:18:03.920Z,1015.79
2022-12-17T08:19:03.783Z,1015.73
2022-12-17T08:20:03.683Z,1015.76
2022-12-17T08:21:03.850Z,1015.77
2022-12-17T08:22:04.195Z,1015.83
2022-12-17T08:23:04.241Z,1015.82
2022-12-17T08:24:03.770Z,1015.82
2022-12-17T08:25:03.728Z,1015.84
2022-12-17T08:26:04.009Z,1015.87
2022-12-17T08:27:04.619Z,1015.87
2022-12-17T08:28:10.921Z,1015.94
2022-12-17T08:29:04.408Z,1015.95
2022-12-17T08:30:04.531Z,1015.90
2022-12-17T08:31:04.370Z,1015.93
2022-12-17T08:32:03.985Z,1015.95
2022-12-17T08:33:03.543Z,1015.96
2022-12-17T08:34:07.833Z,1015.90
2022-12-17T08:35:03.730Z,1015.96
2022-12-17T08:36:03.482Z,1015.93
2022-12-17T08:37:04.031Z,1015.93
2022-12-17T08:38:03.619Z,1015.95
2022-12-17T08:39:04.080Z,1015.96
2022-12-17T08:40:03.588Z,1016.00
2022-12-17T08:41:03.743Z,1015.97
2022-12-17T08:42:04.796Z,1016.05
2022-12-17T08:43:04.153Z,1016.06
2022-12-17T08:44:04.164Z,1016.00
2022-12-17T08:45:04.374Z,1016.14
2022-12-17T08:46:04.246Z,1016.05
2022-12-17T08:47:04.421Z,1016.07
2022-12-17T08:48:04.677Z,1016.07
2022-12-17T08:49:04.244Z,1016.04
2022-12-17T08:50:04.772Z,1016.06
2022-12-17T08:51:04.731Z,1016.11
2022-12-17T08:52:03.945Z,1016.12
2022-12-17T08:53:03.355Z,1016.12
2022-12-17T08:54:03.949Z,1016.10
2022-12-17T08:55:03.530Z,1016.11
2022-12-17T08:56:03.909Z,1016.08
2022-12-17T08:57:03.886Z,1016.06
2022-12-17T08:58:03.528Z,1016.08
2022-12-17T08:59:03.735Z,1016.05
2022-12-17T09:00:03.774Z,1016.03
2022-12-17T09:01:03.975Z,1016.02
2022-12-17T09:02:04.465Z,1016.05
2022-12-17T09:03:04.248Z,1016.05
2022-12-17T09:04:04.028Z,1016.11
2022-12-17T09:05:03.701Z,1016.10
2022-12-17T09:06:03.730Z,1016.13
2022-12-17T09:07:03.684Z,1016.15
2022-12-17T09:08:03.601Z,1016.17
2022-12-17T09:09:03.771Z,1016.13
2022-12-17T09:10:03.644Z,1016.18
2022-12-17T09:11:03.550Z,1016.17
2022-12-17T09:12:04.203Z,1016.18
2022-12-17T09:13:05.123Z,1016.10
2022-12-17T09:14:03.970Z,1016.14
2022-12-17T09:15:03.834Z,1016.11
2022-12-17T09:16:04.172Z,1016.12
2022-12-17T09:17:03.729Z,1016.15
2022-12-17T09:18:03.319Z,1016.12
2022-12-17T09:19:03.364Z,1016.17
2022-12-17T09:20:03.442Z,1016.17
2022-12-17T09:21:03.306Z,1016.13
2022-12-17T09:22:03.533Z,1016.17
2022-12-17T09:23:03.441Z,1016.17
2022-12-17T09:24:03.498Z,1016.19
2022-12-17T09:25:03.451Z,1016.18
2022-12-17T09:26:02.831Z,1016.24
2022-12-17T09:27:03.811Z,1016.26
2022-12-17T09:28:03.282Z,1016.20
2022-12-17T09:29:03.469Z,1016.18
2022-12-17T09:30:03.166Z,1016.21
2022-12-17T09:31:03.407Z,1016.15
2022-12-17T09:32:03.679Z,1016.12
2022-12-17T09:33:03.456Z,1016.16
2022-12-17T09:34:03.370Z,1016.18
2022-12-17T09:35:03.638Z,1016.20
2022-12-17T09:36:03.681Z,1016.22
2022-12-17T09:37:03.268Z,1016.22
2022-12-17T09:38:03.397Z,1016.18
2022-12-17T09:39:03.448Z,1016.15
2022-12-17T09:40:02.966Z,1016.16
2022-12-17T09:41:03.412Z,1016.18
2022-12-17T09:42:03.317Z,1016.22
2022-12-17T09:43:03.574Z,1016.16
2022-12-17T09:44:02.988Z,1016.23
2022-12-17T09:45:03.441Z,1016.22
2022-12-17T09:46:03.157Z,1016.25
2022-12-17T09:47:03.781Z,1016.26
2022-12-17T09:48:03.743Z,1016.30
2022-12-17T09:49:03.560Z,1016.36
2022-12-17T09:50:03.657Z,1016.32
2022-12-17T09:51:03.559Z,1016.30
2022-12-17T09:52:03.892Z,1016.29
2022-12-17T09:53:03.570Z,1016.36
2022-12-17T09:54:03.907Z,1016.32
2022-12-17T09:55:03.671Z,1016.35
2022-12-17T09:56:03.649Z,1016.34
2022-12-17T09:57:02.801Z,1016.30
2022-12-17T09:58:03.381Z,1016.30
2022-12-17T09:59:02.973Z,1016.31
2022-12-17T10:00:02.989Z,1016.34
2022-12-17T10:01:02.828Z,1016.33
2022-12-17T10:02:04.420Z,1016.33
2022-12-17T10:03:04.823Z,1016.28
2022-12-17T10:04:04.148Z,1016.34
2022-12-17T10:05:04.677Z,1016.34
2022-12-17T10:06:04.136Z,1016.30
2022-12-17T10:07:04.384Z,1016.30
2022-12-17T10:08:03.922Z,1016.33
2022-12-17T10:09:04.070Z,1016.29
2022-12-17T10:10:04.216Z,1016.30
2022-12-17T10:11:03.696Z,1016.29
2022-12-17T10:12:03.808Z,1016.37
2022-12-17T10:13:03.925Z,1016.32
2022-12-17T10:14:04.163Z,1016.38
2022-12-17T10:15:04.021Z,1016.37
2022-12-17T10:16:03.911Z,1016.35
2022-12-17T10:17:08.548Z,1016.35
2022-12-17T10:18:04.297Z,1016.37
2022-12-17T10:19:04.636Z,1016.37
2022-12-17T10:20:04.555Z,1016.40
2022-12-17T10:21:04.115Z,1016.38
2022-12-17T10:22:03.502Z,1016.40
2022-12-17T10:23:03.460Z,1016.38
2022-12-17T10:24:03.728Z,1016.41
2022-12-17T10:25:03.980Z,1016.45
2022-12-17T10:26:03.749Z,1016.40
2022-12-17T10:27:03.718Z,1016.39
2022-12-17T10:28:04.253Z,1016.34
2022-12-17T10:29:04.180Z,1016.40
2022-12-17T10:30:04.237Z,1016.37
2022-12-17T10:31:04.120Z,1016.34
2022-12-17T10:32:03.152Z,1016.34
2022-12-17T10:33:03.318Z,1016.28
2022-12-17T10:34:03.350Z,1016.35
2022-12-17T10:35:05.651Z,1016.39
2022-12-17T10:36:03.008Z,1016.40
2022-12-17T10:37:03.421Z,1016.38
2022-12-17T10:38:03.479Z,1016.33
2022-12-17T10:39:03.528Z,1016.33
2022-12-17T10:40:03.632Z,1016.28
2022-12-17T10:41:03.568Z,1016.36
2022-12-17T10:42:03.887Z,1016.28
2022-12-17T10:43:03.788Z,1016.27
2022-12-17T10:44:03.823Z,1016.33
2022-12-17T10:45:03.789Z,1016.35
2022-12-17T10:46:04.352Z,1016.32
2022-12-17T10:47:03.626Z,1016.29
2022-12-17T10:48:03.612Z,1016.28
2022-12-17T10:49:08.256Z,1016.23
2022-12-17T10:50:03.084Z,1016.24
2022-12-17T10:51:03.622Z,1016.27
2022-12-17T10:52:03.901Z,1016.35
2022-12-17T10:53:03.720Z,1016.32
2022-12-17T10:54:03.961Z,1016.38
2022-12-17T10:55:03.993Z,1016.34
2022-12-17T10:56:04.148Z,1016.41
2022-12-17T10:57:03.482Z,1016.44
2022-12-17T10:58:03.603Z,1016.40
2022-12-17T10:59:03.677Z,1016.35
2022-12-17T11:00:03.741Z,1016.37
2022-12-17T11:01:03.748Z,1016.38
2022-12-17T11:02:03.773Z,1016.36
2022-12-17T11:03:03.725Z,1016.34
2022-12-17T11:04:03.393Z,1016.39
2022-12-17T11:05:03.347Z,1016.51
2022-12-17T11:06:03.944Z,1016.43
2022-12-17T11:07:03.363Z,1016.48
2022-12-17T11:08:03.069Z,1016.45
2022-12-17T11:09:03.010Z,1016.43
2022-12-17T11:10:09.046Z,1016.47
2022-12-17T11:11:03.394Z,1016.45
2022-12-17T11:12:07.312Z,1016.47
2022-12-17T11:13:04.044Z,1016.53
2022-12-17T11:14:04.187Z,1016.48
2022-12-17T11:15:04.089Z,1016.54
2022-12-17T11:16:04.244Z,1016.55
2022-12-17T11:17:03.476Z,1016.45
2022-12-17T11:18:09.483Z,1016.53
2022-12-17T11:19:03.725Z,1016.51
2022-12-17T11:20:03.751Z,1016.52
2022-12-17T11:21:03.573Z,1016.53
2022-12-17T11:22:03.856Z,1016.51
2022-12-17T11:23:03.528Z,1016.53
2022-12-17T11:24:03.699Z,1016.50
2022-12-17T11:25:04.043Z,1016.48
2022-12-17T11:26:04.034Z,1016.46
2022-12-17T11:27:03.627Z,1016.52
2022-12-17T11:28:03.645Z,1016.46
2022-12-17T11:29:03.515Z,1016.44
2022-12-17T11:30:03.918Z,1016.50
2022-12-17T11:31:03.632Z,1016.48
2022-12-17T11:32:03.498Z,1016.47
2022-12-17T11:33:03.479Z,1016.50
2022-12-17T11:34:03.150Z,1016.49
2022-12-17T11:35:03.070Z,1016.48
2022-12-17T11:36:03.313Z,1016.42
2022-12-17T11:37:03.177Z,1016.42
2022-12-17T11:38:03.484Z,1016.47
2022-12-17T11:39:03.213Z,1016.41
2022-12-17T11:40:03.223Z,1016.38
2022-12-17T11:41:03.147Z,1016.40
2022-12-17T11:42:08.039Z,1016.39
2022-12-17T11:43:03.389Z,1016.36
2022-12-17T11:44:03.313Z,1016.36
2022-12-17T11:45:03.203Z,1016.34
2022-12-17T11:46:03.481Z,1016.37
2022-12-17T11:47:03.386Z,1016.36
2022-12-17T11:48:03.422Z,1016.36
2022-12-17T11:49:03.650Z,1016.39
2022-12-17T11:50:03.534Z,1016.38
2022-12-17T11:51:03.347Z,1016.38
2022-12-17T11:52:03.190Z,1016.40
2022-12-17T11:53:02.997Z,1016.34
2022-12-17T11:54:03.245Z,1016.35
2022-12-17T11:55:02.609Z,1016.37
2022-12-17T11:56:03.081Z,1016.39
2022-12-17T11:57:03.364Z,1016.39
2022-12-17T11:58:03.683Z,1016.41
2022-12-17T11:59:03.161Z,1016.41
2022-12-17T12:00:04.477Z,1016.39
2022-12-17T12:01:03.033Z,1016.35
2022-12-17T12:02:04.439Z,1016.27
2022-12-17T12:03:04.931Z,1016.29
2022-12-17T12:04:04.214Z,1016.26
2022-12-17T12:05:04.698Z,1016.40